Terminal Aerodrome Forecast
Issued by NWS Upton, NY

Home | Current Version | Previous Version | Text Only | Print | Product List | Glossary On
Versions: 1 2 3 4 5 6 7 8 9 10 11 12 13 14 15 16 17 18 19 20 21 22 23 24 25 26 27 28 29 30 31 32 33 34 35 36 37
369
FTUS41 KOKX 271123
TAFEWR
TAF
KEWR 271123Z 2712/2818 22008KT P6SM SKC
     FM271500 23010KT P6SM SCT100
     FM271700 22013G20KT P6SM SCT070 BKN100
     FM272300 22008KT P6SM BKN100
     FM280200 21005KT P6SM OVC080
     FM280600 VRB03KT P6SM FEW004 OVC080
     FM281500 09004KT P6SM BKN004 OVC090 PROB30 2815/2818 5SM -RA=

USA.gov is the U.S. government's official web portal to all federal, state and local government web resources and services.